Saint Louis, MO (63119)

9:18 PM CDT on September 02, 2014 (GMT -0500)
Webster Groves | Change Station
CLOSE
Current Station
Personal Weather Station
Location: Webster Groves, MO
Elevation: 571 ft
Nearby Weather Stations

Elev 571 ft 38.59 °N, 90.35 °W | Updated 3 minutes ago

Partly Cloudy
Partly Cloudy
70.5 °F
Feels Like 70.5 °F
N
0.0
Wind Variable Wind from WSW

Today
High -- | Low -- °F
--% Chance of Precip.
Yesterday
High -- | Low -- °F
Precip. -- in
6:31 AM 7:29 PM
First Quarter, 57% visible
Pressure 29.96 in
Visibility 10.0 miles
Clouds Scattered Clouds 20000 ft
Dew Point 69 °F
Humidity 95%
Rainfall 0.83 in
Snow Depth Not available.
UV 0 out of 12
Pollen 6.50 out of 12
Ozone Good
PM2.5 Good
Flu Activity Not available.
METAR KSTL 030151Z 00000KT 10SM SCT200 24/20 A2999 RMK AO2 SLP146 T02440200

More Conditions Fewer Conditions

Pressure 29.96 in
Visibility 10.0 miles
Clouds Scattered Clouds 20000 ft
Dew Point 69 °F
Humidity 95%
Rainfall 0.83 in
Snow Depth Not available.
UV 0 out of 12
Pollen 6.50 out of 12
Ozone Good
PM2.5 Good
Flu Activity Not available.
METAR KSTL 030151Z 00000KT 10SM SCT200 24/20 A2999 RMK AO2 SLP146 T02440200

More Conditions Fewer Conditions

10-Day Weather Forecast

Almanac

Astronomy

Sep. 02, 2014 Rise Set
Actual Time 6:31 AM CDT 7:29 PM CDT
Civil Twilight 6:04 AM CDT 7:56 PM CDT
Nautical Twilight 5:32 AM CDT 8:29 PM CDT
Astronomical Twilight 4:58 AM CDT 9:02 PM CDT
Moon 2:10 PM CDT (9/2) No Moon Set
Length of Visible Light 13h 52m
Length of Day
12h 58m
Tomorrow will be 2m 25s shorter.
First Quarter, 57% of the Moon is Illuminated
Today
First Quarter
Sep 8
Full
Sep 15
Last Quarter
Sep 24
New
Oct 1
First Quarter

Today's Extremes

State Highs State Lows

Community

WunderPhotos

Upload Photos

1,749,841 photos uploaded!

Nearby

Air Quality

  Air Quality AQ Index Pollutant
Yesterday Good
OZONE
Yesterday Good
PM2.5
Current Good
OZONE
Current Good
PM2.5
Tuesday Moderate
OZONE
Tuesday Good
PM2.5
Wednesday Moderate
OZONE
Wednesday Good
PM2.5

Snow Depth

Station Depth Elevation
No new snow has been reported.

Earthquake Activity

City Distance Mag. Time & Date
No recent earthquake activity has been reported nearby.
Minimum magnitude displayed is 2.5.

Coastal Water Temperatures

Place Temperature
No Stations Reporting

Nearby Weather Stations